createdAt,value
2019-02-04T00:00:34.510Z,1.70
2019-02-04T00:01:34.525Z,1.30
2019-02-04T00:02:34.474Z,1.80
2019-02-04T00:03:34.459Z,2.10
2019-02-04T00:04:34.455Z,1.80
2019-02-04T00:05:34.442Z,1.90
2019-02-04T00:06:34.470Z,1.90
2019-02-04T00:07:34.447Z,1.60
2019-02-04T00:08:34.417Z,1.90
2019-02-04T00:09:34.400Z,1.30
2019-02-04T00:10:34.405Z,1.70
2019-02-04T00:11:34.420Z,2.10
2019-02-04T00:12:34.379Z,1.90
2019-02-04T00:13:34.381Z,1.80
2019-02-04T00:14:34.363Z,2.00
2019-02-04T00:15:35.279Z,1.90
2019-02-04T00:16:40.963Z,1.60
2019-02-04T00:17:35.380Z,1.70
2019-02-04T00:18:34.310Z,1.60
2019-02-04T00:19:34.300Z,1.60
2019-02-04T00:20:34.294Z,2.20
2019-02-04T00:21:34.324Z,1.90
2019-02-04T00:22:34.283Z,1.90
2019-02-04T00:23:34.258Z,1.60
2019-02-04T00:24:34.252Z,2.00
2019-02-04T00:25:34.241Z,1.60
2019-02-04T00:26:34.275Z,1.40
2019-02-04T00:27:34.222Z,2.20
2019-02-04T00:28:34.227Z,1.80
2019-02-04T00:29:34.212Z,1.80
2019-02-04T00:30:34.196Z,2.10
2019-02-04T00:31:35.215Z,1.80
2019-02-04T00:32:34.169Z,1.80
2019-02-04T00:33:34.162Z,2.40
2019-02-04T00:34:34.173Z,1.80
2019-02-04T00:35:34.163Z,2.00
2019-02-04T00:36:34.151Z,1.80
2019-02-04T00:37:34.169Z,2.20
2019-02-04T00:38:34.120Z,1.90
2019-02-04T00:39:34.100Z,2.00
2019-02-04T00:40:34.088Z,2.00
2019-02-04T00:41:34.081Z,1.80
2019-02-04T00:42:34.096Z,1.40
2019-02-04T00:43:34.056Z,1.40
2019-02-04T00:44:34.233Z,2.30
2019-02-04T00:45:34.049Z,2.10
2019-02-04T00:46:34.045Z,1.60
2019-02-04T00:47:34.052Z,2.00
2019-02-04T00:48:34.013Z,1.50
2019-02-04T00:49:34.005Z,2.10
2019-02-04T00:50:33.984Z,2.30
2019-02-04T00:51:33.994Z,1.80
2019-02-04T00:52:33.992Z,1.60
2019-02-04T00:53:33.957Z,1.50
2019-02-04T00:54:33.941Z,1.70
2019-02-04T00:55:33.927Z,1.50
2019-02-04T00:56:33.958Z,2.00
2019-02-04T00:57:33.971Z,1.90
2019-02-04T00:58:34.001Z,1.60
2019-02-04T00:59:33.911Z,1.50
2019-02-04T01:00:33.887Z,1.30
2019-02-04T01:01:33.876Z,2.20
2019-02-04T01:02:33.901Z,1.80
2019-02-04T01:03:33.867Z,1.90
2019-02-04T01:04:33.863Z,2.10
2019-02-04T01:05:33.858Z,2.10
2019-02-04T01:06:33.838Z,2.80
2019-02-04T01:07:33.857Z,1.90
2019-02-04T01:08:33.819Z,1.30
2019-02-04T01:09:33.806Z,2.00
2019-02-04T01:10:33.786Z,1.40
2019-02-04T01:11:33.776Z,2.10
2019-02-04T01:12:33.837Z,1.70
2019-02-04T01:13:33.784Z,1.30
2019-02-04T01:14:33.757Z,1.80
2019-02-04T01:15:33.736Z,1.90
2019-02-04T01:16:33.722Z,2.60
2019-02-04T01:17:33.748Z,2.10
2019-02-04T01:18:33.697Z,1.50
2019-02-04T01:19:33.707Z,2.00
2019-02-04T01:20:33.704Z,1.60
2019-02-04T01:21:33.679Z,1.90
2019-02-04T01:22:33.710Z,1.90
2019-02-04T01:23:33.647Z,1.70
2019-02-04T01:24:33.636Z,1.90
2019-02-04T01:25:33.640Z,2.30
2019-02-04T01:26:33.624Z,1.90
2019-02-04T01:27:33.642Z,2.20
2019-02-04T01:28:33.641Z,2.00
2019-02-04T01:29:33.598Z,1.70
2019-02-04T01:30:33.595Z,2.50
2019-02-04T01:31:33.573Z,2.00
2019-02-04T01:32:33.567Z,2.60
2019-02-04T01:33:33.599Z,1.90
2019-02-04T01:34:33.557Z,2.30
2019-02-04T01:35:33.533Z,2.20
2019-02-04T01:36:33.524Z,2.40
2019-02-04T01:37:33.756Z,2.40
2019-02-04T01:38:33.540Z,2.50
2019-02-04T01:39:33.488Z,3.10
2019-02-04T01:40:33.482Z,2.90
2019-02-04T01:41:33.473Z,2.00
2019-02-04T01:42:33.455Z,3.10
2019-02-04T01:43:33.487Z,2.60
2019-02-04T01:44:33.465Z,2.50
2019-02-04T01:45:33.437Z,1.50
2019-02-04T01:46:33.431Z,2.00
2019-02-04T01:47:33.407Z,2.20
2019-02-04T01:48:33.455Z,1.60
2019-02-04T01:49:33.397Z,2.10
2019-02-04T01:50:33.373Z,2.00
2019-02-04T01:51:33.423Z,3.10
2019-02-04T01:52:33.352Z,2.40
2019-02-04T01:53:33.400Z,1.90
2019-02-04T01:54:33.337Z,2.40
2019-02-04T01:55:34.261Z,2.10
2019-02-04T01:56:33.313Z,2.80
2019-02-04T01:57:33.302Z,3.40
2019-02-04T01:58:34.328Z,2.70
2019-02-04T01:59:33.279Z,2.40
2019-02-04T02:00:33.280Z,2.70
2019-02-04T02:01:33.264Z,1.90
2019-02-04T02:02:33.327Z,2.10
2019-02-04T02:03:33.279Z,2.30
2019-02-04T02:04:33.240Z,2.20
2019-02-04T02:05:33.239Z,1.80
2019-02-04T02:06:33.229Z,1.70
2019-02-04T02:07:33.210Z,2.80
2019-02-04T02:08:33.235Z,2.20
2019-02-04T02:09:33.179Z,2.70
2019-02-04T02:10:33.187Z,2.40
2019-02-04T02:11:33.196Z,2.70
2019-02-04T02:12:33.154Z,2.60
2019-02-04T02:13:33.161Z,2.80
2019-02-04T02:14:33.147Z,2.40
2019-02-04T02:15:33.215Z,2.10
2019-02-04T02:16:33.135Z,1.90
2019-02-04T02:17:33.103Z,3.20
2019-02-04T02:18:33.082Z,2.50
2019-02-04T02:19:33.085Z,1.70
2019-02-04T02:20:33.067Z,3.20
2019-02-04T02:21:33.106Z,3.20
2019-02-04T02:22:33.054Z,2.70
2019-02-04T02:23:33.053Z,3.00
2019-02-04T02:24:33.070Z,1.90
2019-02-04T02:25:33.018Z,2.20
2019-02-04T02:26:33.006Z,2.00
2019-02-04T02:27:32.997Z,3.90
2019-02-04T02:28:32.995Z,2.80
2019-02-04T02:29:33.034Z,3.30
2019-02-04T02:30:32.969Z,2.90
2019-02-04T02:31:32.958Z,2.90
2019-02-04T02:32:32.951Z,3.00
2019-02-04T02:33:32.935Z,3.20
2019-02-04T02:34:32.972Z,2.40
2019-02-04T02:35:32.941Z,2.50
2019-02-04T02:36:32.918Z,2.60
2019-02-04T02:37:32.892Z,2.80
2019-02-04T02:38:32.898Z,3.00
2019-02-04T02:39:32.904Z,2.80
2019-02-04T02:40:32.863Z,3.40
2019-02-04T02:41:32.877Z,2.60
2019-02-04T02:42:32.853Z,4.00
2019-02-04T02:43:32.844Z,2.50
2019-02-04T02:44:32.861Z,2.60
2019-02-04T02:45:32.807Z,2.70
2019-02-04T02:46:32.812Z,3.00
2019-02-04T02:47:38.392Z,3.00
2019-02-04T02:48:33.792Z,2.90
2019-02-04T02:49:32.817Z,3.40
2019-02-04T02:50:32.769Z,2.70
2019-02-04T02:51:32.753Z,3.10
2019-02-04T02:52:32.743Z,3.00
2019-02-04T02:53:32.738Z,2.90
2019-02-04T02:54:32.750Z,2.80
2019-02-04T02:55:32.732Z,3.90
2019-02-04T02:56:32.695Z,3.10
2019-02-04T02:57:32.707Z,3.10
2019-02-04T02:58:32.684Z,3.80
2019-02-04T02:59:32.706Z,3.60
2019-02-04T03:00:32.666Z,3.40
2019-02-04T03:01:32.665Z,3.00
2019-02-04T03:02:32.641Z,3.50
2019-02-04T03:03:32.629Z,3.70
2019-02-04T03:04:32.640Z,2.90
2019-02-04T03:05:32.615Z,3.00
2019-02-04T03:06:32.610Z,3.70
2019-02-04T03:07:32.590Z,3.10
2019-02-04T03:08:32.583Z,3.50
2019-02-04T03:09:32.622Z,3.30
2019-02-04T03:10:32.615Z,3.30
2019-02-04T03:11:32.549Z,3.10
2019-02-04T03:12:32.552Z,3.20
2019-02-04T03:13:40.149Z,3.40
2019-02-04T03:14:34.383Z,3.10
2019-02-04T03:15:34.309Z,4.60
2019-02-04T03:16:34.284Z,4.00
2019-02-04T03:17:34.304Z,4.10
2019-02-04T03:18:34.328Z,4.20
2019-02-04T03:19:34.284Z,3.50
2019-02-04T03:20:34.292Z,4.20
2019-02-04T03:21:34.324Z,3.10
2019-02-04T03:22:34.304Z,4.00
2019-02-04T03:23:34.268Z,4.20
2019-02-04T03:24:32.436Z,4.50
2019-02-04T03:25:34.295Z,4.20
2019-02-04T03:26:34.283Z,3.60
2019-02-04T03:27:34.274Z,3.40
2019-02-04T03:28:34.270Z,2.90
2019-02-04T03:29:34.290Z,3.80
2019-02-04T03:30:34.332Z,3.40
2019-02-04T03:31:34.294Z,3.90
2019-02-04T03:32:34.271Z,3.10
2019-02-04T03:33:34.292Z,4.40
2019-02-04T03:34:34.304Z,3.50
2019-02-04T03:35:34.287Z,3.50
2019-02-04T03:36:34.297Z,3.40
2019-02-04T03:37:34.268Z,3.70
2019-02-04T03:38:33.771Z,4.60
2019-02-04T03:39:33.791Z,4.20
2019-02-04T03:40:33.791Z,2.80
2019-02-04T03:41:32.257Z,3.50
2019-02-04T03:42:33.798Z,2.50
2019-02-04T03:43:33.770Z,1.90
2019-02-04T03:44:33.772Z,1.30
2019-02-04T03:45:33.779Z,1.90
2019-02-04T03:46:33.786Z,2.00
2019-02-04T03:47:33.786Z,1.40
2019-02-04T03:48:33.182Z,1.10
2019-02-04T03:49:33.816Z,1.10
2019-02-04T03:50:33.801Z,2.20
2019-02-04T03:51:33.803Z,2.20
2019-02-04T03:52:33.777Z,1.80
2019-02-04T03:53:33.791Z,1.40
2019-02-04T03:54:33.771Z,1.20
2019-02-04T03:55:33.798Z,0.80
2019-02-04T03:56:33.808Z,2.20
2019-02-04T03:57:33.771Z,1.50
2019-02-04T03:58:32.065Z,1.30
2019-02-04T03:59:33.774Z,4.00
2019-02-04T04:00:33.782Z,2.10
2019-02-04T04:01:33.773Z,2.50
2019-02-04T04:02:33.801Z,2.50
2019-02-04T04:03:33.768Z,1.30
2019-02-04T04:04:33.775Z,1.60
2019-02-04T04:05:34.769Z,1.80
2019-02-04T04:06:33.787Z,1.70
2019-02-04T04:07:33.770Z,1.90
2019-02-04T04:08:33.806Z,1.50
2019-02-04T04:09:33.772Z,1.70
2019-02-04T04:10:33.930Z,1.70
2019-02-04T04:11:33.783Z,2.10
2019-02-04T04:12:33.808Z,1.60
2019-02-04T04:13:33.768Z,2.80
2019-02-04T04:14:33.770Z,2.30
2019-02-04T04:15:33.826Z,1.70
2019-02-04T04:16:33.779Z,2.10
2019-02-04T04:17:33.788Z,2.20
2019-02-04T04:18:33.785Z,1.00
2019-02-04T04:19:33.771Z,1.90
2019-02-04T04:20:33.772Z,2.90
2019-02-04T04:21:33.792Z,1.80
2019-02-04T04:22:33.762Z,2.10
2019-02-04T04:23:33.779Z,2.40
2019-02-04T04:30:47.645Z,4.60
2019-02-04T04:31:49.424Z,1.80
2019-02-04T04:32:47.523Z,1.80
2019-02-04T04:33:49.419Z,3.40
2019-02-04T04:34:49.413Z,1.90
2019-02-04T04:35:49.397Z,2.00
2019-02-04T04:51:30.726Z,3.60
2019-02-04T04:52:32.611Z,2.40
2019-02-04T04:53:32.586Z,2.00
2019-02-04T04:54:32.592Z,2.00
2019-02-04T05:17:26.240Z,6.00
2019-02-04T05:18:37.675Z,5.30
2019-02-04T05:19:28.757Z,4.30
2019-02-04T05:28:51.011Z,4.90
2019-02-04T05:36:08.366Z,2.90
2019-02-04T05:37:10.268Z,1.50
2019-02-04T05:38:10.273Z,1.70
2019-02-04T05:39:09.297Z,2.40
2019-02-04T05:40:09.779Z,3.00
2019-02-04T05:41:09.765Z,2.20
2019-02-04T05:42:09.769Z,2.10
2019-02-04T05:43:09.776Z,1.60
2019-02-04T05:44:09.790Z,2.50
2019-02-04T05:45:09.817Z,2.00
2019-02-04T05:46:09.763Z,2.90
2019-02-04T05:47:09.797Z,1.30
2019-02-04T05:48:09.779Z,2.20
2019-02-04T05:49:09.767Z,1.00
2019-02-04T05:50:09.764Z,4.00
2019-02-04T05:51:09.784Z,4.30
2019-02-04T05:52:09.758Z,4.00
2019-02-04T05:53:08.166Z,4.30
2019-02-04T05:54:09.781Z,4.20
2019-02-04T05:55:09.791Z,3.20
2019-02-04T05:56:09.091Z,4.40
2019-02-04T05:57:09.766Z,4.20
2019-02-04T05:58:09.770Z,5.10
2019-02-04T05:59:09.782Z,4.00
2019-02-04T06:00:09.769Z,3.60
2019-02-04T06:01:09.767Z,5.10
2019-02-04T06:02:09.775Z,3.70
2019-02-04T06:03:09.775Z,5.80
2019-02-04T06:04:08.014Z,4.20
2019-02-04T06:05:09.767Z,4.30
2019-02-04T06:06:09.772Z,4.30
2019-02-04T06:07:09.784Z,3.50
2019-02-04T06:08:09.771Z,5.40
2019-02-04T06:09:09.758Z,5.00
2019-02-04T06:10:09.772Z,4.40
2019-02-04T06:11:09.771Z,3.10
2019-02-04T06:12:09.780Z,3.70
2019-02-04T06:13:09.781Z,4.30
2019-02-04T06:14:09.771Z,5.00
2019-02-04T06:15:09.091Z,4.60
2019-02-04T06:16:09.760Z,4.80
2019-02-04T06:17:09.764Z,4.50
2019-02-04T06:20:09.495Z,4.00
2019-02-04T06:22:45.945Z,2.70
2019-02-04T06:23:47.440Z,4.30
2019-02-04T06:24:47.415Z,3.90
2019-02-04T06:25:53.418Z,4.80
2019-02-04T06:26:47.550Z,4.30
2019-02-04T06:27:47.547Z,5.50
2019-02-04T06:28:47.467Z,2.90
2019-02-04T06:29:53.443Z,4.30
2019-02-04T06:30:47.602Z,4.20
2019-02-04T06:31:53.351Z,4.60
2019-02-04T06:35:43.640Z,4.30
2019-02-04T06:36:45.068Z,3.90
2019-02-04T06:37:46.986Z,4.30
2019-02-04T06:40:17.063Z,1.80
2019-02-04T06:41:18.747Z,2.00
2019-02-04T06:42:18.709Z,2.00
2019-02-04T06:43:18.733Z,2.00
2019-02-04T06:44:18.727Z,0.90
2019-02-04T06:45:24.601Z,2.20
2019-02-04T06:47:50.771Z,3.00
2019-02-04T06:50:26.174Z,1.50
2019-02-04T06:52:35.384Z,2.80
2019-02-04T06:55:08.857Z,4.00
2019-02-04T06:56:10.368Z,2.10
2019-02-04T06:57:10.496Z,2.40
2019-02-04T06:58:10.419Z,1.50
2019-02-04T06:59:10.391Z,1.70
2019-02-04T07:00:08.731Z,1.70
2019-02-04T07:01:10.370Z,1.40
2019-02-04T07:02:10.405Z,1.80
2019-02-04T07:03:10.378Z,1.90
2019-02-04T07:04:10.373Z,1.50
2019-02-04T07:05:10.378Z,2.00
2019-02-04T07:06:10.391Z,1.90
2019-02-04T07:07:10.365Z,1.20
2019-02-04T07:08:10.368Z,1.00
2019-02-04T07:09:10.378Z,1.40
2019-02-04T07:10:10.374Z,1.20
2019-02-04T07:11:10.154Z,2.70
2019-02-04T07:12:10.364Z,1.00
2019-02-04T07:13:10.363Z,1.40
2019-02-04T07:14:10.387Z,1.70
2019-02-04T07:15:10.371Z,2.00
2019-02-04T07:16:10.410Z,1.70
2019-02-04T07:17:10.369Z,1.40
2019-02-04T07:18:10.385Z,2.00
2019-02-04T07:19:10.376Z,1.40
2019-02-04T07:20:10.366Z,1.60
2019-02-04T07:21:10.362Z,2.50
2019-02-04T07:22:10.362Z,1.50
2019-02-04T07:23:10.362Z,1.20
2019-02-04T07:24:10.383Z,1.00
2019-02-04T07:25:10.366Z,1.00
2019-02-04T07:26:10.359Z,1.30
2019-02-04T07:27:10.383Z,1.10
2019-02-04T07:28:08.409Z,1.70
2019-02-04T07:29:10.377Z,2.20
2019-02-04T07:30:10.378Z,1.30
2019-02-04T07:31:10.374Z,2.00
2019-02-04T07:32:09.881Z,2.40
2019-02-04T07:33:09.888Z,1.40
2019-02-04T07:34:09.892Z,1.40
2019-02-04T07:35:09.892Z,1.20
2019-02-04T07:36:09.874Z,2.00
2019-02-04T07:37:09.916Z,1.10
2019-02-04T07:38:09.896Z,1.80
2019-02-04T07:39:08.288Z,2.60
2019-02-04T07:40:09.887Z,2.00
2019-02-04T07:41:09.877Z,1.60
2019-02-04T07:42:09.955Z,1.70
2019-02-04T07:43:09.862Z,0.90
2019-02-04T07:44:09.860Z,1.60
2019-02-04T07:45:09.888Z,1.00
2019-02-04T07:46:09.892Z,3.10
2019-02-04T07:47:09.864Z,2.70
2019-02-04T07:48:09.884Z,3.30
2019-02-04T07:49:09.876Z,3.00
2019-02-04T07:50:08.897Z,2.70
2019-02-04T07:51:09.884Z,2.40
2019-02-04T07:52:09.875Z,2.30
2019-02-04T07:53:09.888Z,2.80
2019-02-04T07:54:09.894Z,3.10
2019-02-04T07:55:09.885Z,2.00
2019-02-04T07:56:09.913Z,2.70
2019-02-04T07:57:09.859Z,2.50
2019-02-04T07:58:09.867Z,2.60
2019-02-04T07:59:09.891Z,3.00
2019-02-04T08:00:09.886Z,2.80
2019-02-04T08:01:12.074Z,1.70
2019-02-04T08:02:09.884Z,1.60
2019-02-04T08:03:09.874Z,2.70
2019-02-04T08:04:09.872Z,3.00
2019-02-04T08:05:09.883Z,3.30
2019-02-04T08:06:09.874Z,2.90
2019-02-04T08:07:09.867Z,3.40
2019-02-04T08:08:09.869Z,2.20
2019-02-04T08:09:09.873Z,2.90
2019-02-04T08:10:09.995Z,3.50
2019-02-04T08:11:09.913Z,3.30
2019-02-04T08:12:09.890Z,2.30
2019-02-04T08:13:09.858Z,3.00
2019-02-04T08:14:09.881Z,2.50
2019-02-04T08:15:09.876Z,2.70
2019-02-04T08:16:09.876Z,2.90
2019-02-04T08:17:09.875Z,3.00
2019-02-04T08:18:07.890Z,3.10
2019-02-04T08:19:09.869Z,2.00
2019-02-04T08:20:16.981Z,3.50
2019-02-04T08:21:15.454Z,2.40
2019-02-04T08:22:15.427Z,2.50
2019-02-04T08:23:15.518Z,3.10
2019-02-04T08:24:09.539Z,2.60
2019-02-04T08:25:16.575Z,2.90
2019-02-04T08:26:09.683Z,2.70
2019-02-04T08:27:09.566Z,3.10
2019-02-04T08:28:09.570Z,1.40
2019-02-04T08:29:09.564Z,1.30
2019-02-04T08:30:16.603Z,0.70
2019-02-04T08:31:09.592Z,0.70
2019-02-04T08:32:09.590Z,1.70
2019-02-04T08:33:09.606Z,1.20
2019-02-04T08:34:09.578Z,1.90
2019-02-04T08:35:09.583Z,1.10
2019-02-04T08:36:09.590Z,2.90
2019-02-04T08:37:09.591Z,2.20
2019-02-04T08:38:09.587Z,2.70
2019-02-04T08:39:09.598Z,2.50
2019-02-04T08:40:09.595Z,2.30
2019-02-04T08:41:09.610Z,2.70
2019-02-04T08:42:09.591Z,2.70
2019-02-04T08:43:15.205Z,2.80
2019-02-04T08:44:15.193Z,1.10
2019-02-04T08:45:15.223Z,1.40
2019-02-04T08:46:16.281Z,2.20
2019-02-04T08:47:09.275Z,1.40
2019-02-04T08:48:09.229Z,1.80
2019-02-04T08:49:09.253Z,1.80
2019-02-04T08:50:09.234Z,2.60
2019-02-04T08:51:09.244Z,1.60
2019-02-04T08:52:09.256Z,2.40
2019-02-04T08:53:09.232Z,2.30
2019-02-04T08:54:09.228Z,2.30
2019-02-04T08:55:09.406Z,2.20
2019-02-04T08:56:16.796Z,2.60
2019-02-04T08:57:09.298Z,2.30
2019-02-04T08:58:09.268Z,1.60
2019-02-04T08:59:09.275Z,2.20
2019-02-04T09:00:15.120Z,2.60
2019-02-04T09:01:09.365Z,1.40
2019-02-04T09:02:09.306Z,1.90
2019-02-04T09:03:09.304Z,2.40
2019-02-04T09:04:09.315Z,1.70
2019-02-04T09:05:09.358Z,2.30
2019-02-04T09:06:09.321Z,1.90
2019-02-04T09:07:09.342Z,2.30
2019-02-04T09:08:07.512Z,2.60
2019-02-04T09:09:09.335Z,2.20
2019-02-04T09:10:09.307Z,1.30
2019-02-04T09:11:16.370Z,1.80
2019-02-04T09:12:08.857Z,1.80
2019-02-04T09:13:08.848Z,1.20
2019-02-04T09:14:14.874Z,2.10
2019-02-04T09:15:08.969Z,2.40
2019-02-04T09:16:08.861Z,1.50
2019-02-04T09:17:08.884Z,2.90
2019-02-04T09:19:52.278Z,2.50
2019-02-04T09:20:59.832Z,1.10
2019-02-04T09:24:39.120Z,1.40
2019-02-04T09:25:40.596Z,1.00
2019-02-04T09:26:40.592Z,2.70
2019-02-04T09:27:40.572Z,1.30
2019-02-04T09:31:15.726Z,0.60
